Time;durP1;ratioP1;P1;durP2;ratioP2;P2;SDS_P1;SDS_P2;PMS_P1;PMS_P2;Temp;Humidity;BMP_temperature;BMP_pressure;BME280_temperature;BME280_humidity;BME280_pressure;Samples;Min_cycle;Max_cycle;Signal;HPM_P1;HPM_P2
2022/03/13 00:01:12;;;;;;;14.77;10.53;;;;;;;;;;5093461;28;20209;-65
2022/03/13 00:03:38;;;;;;;13.23;10.57;;;;;;;;;;5093510;28;20640;-64
2022/03/13 00:06:04;;;;;;;16.77;11.73;;;;;;;;;;5093645;28;20183;-62
2022/03/13 00:08:32;;;;;;;15.00;10.90;;;;;;;;;;5093462;28;20227;-64
2022/03/13 00:11:01;;;;;;;16.73;10.90;;;;;;;;;;5075279;28;20686;-63
2022/03/13 00:13:34;;;;;;;17.60;12.37;;;;;;;;;;5075280;28;20227;-63
2022/03/13 00:16:03;;;;;;;17.70;12.63;;;;;;;;;;5075325;28;20258;-62
2022/03/13 00:18:29;;;;;;;19.97;13.33;;;;;;;;;;5093301;28;20197;-62
2022/03/13 00:20:55;;;;;;;17.17;12.93;;;;;;;;;;5075237;28;20183;-63
2022/03/13 00:23:23;;;;;;;17.53;12.37;;;;;;;;;;5093501;28;20256;-63
2022/03/13 00:25:49;;;;;;;20.33;12.70;;;;;;;;;;5095593;28;20225;-64
2022/03/13 00:28:15;;;;;;;19.07;11.97;;;;;;;;;;5097237;28;20201;-64
2022/03/13 00:30:41;;;;;;;15.63;10.50;;;;;;;;;;5097971;28;20173;-62
2022/03/13 00:33:07;;;;;;;14.50;11.10;;;;;;;;;;5079195;28;20201;-63
2022/03/13 00:35:33;;;;;;;13.47;10.73;;;;;;;;;;5079131;28;20199;-65
2022/03/13 00:37:59;;;;;;;13.87;10.77;;;;;;;;;;5079146;28;20250;-63
2022/03/13 00:40:26;;;;;;;15.60;11.17;;;;;;;;;;5097404;28;20181;-62
2022/03/13 00:42:52;;;;;;;14.17;10.80;;;;;;;;;;5078866;28;20702;-62
2022/03/13 00:45:18;;;;;;;16.70;10.80;;;;;;;;;;5078888;28;20203;-63
2022/03/13 00:47:44;;;;;;;14.93;10.97;;;;;;;;;;5078698;28;20206;-63
2022/03/13 00:50:11;;;;;;;15.70;12.13;;;;;;;;;;5096905;28;20189;-61
2022/03/13 00:52:36;;;;;;;17.27;12.67;;;;;;;;;;5096906;28;20224;-63
2022/03/13 00:55:03;;;;;;;17.30;12.37;;;;;;;;;;5078592;28;20185;-63
2022/03/13 00:57:29;;;;;;;23.40;15.57;;;;;;;;;;5096897;28;20193;-63
2022/03/13 00:59:55;;;;;;;22.63;17.37;;;;;;;;;;5078656;28;20259;-63
2022/03/13 01:02:21;;;;;;;22.77;16.80;;;;;;;;;;5096684;28;20230;-63
2022/03/13 01:04:47;;;;;;;20.27;15.57;;;;;;;;;;5078455;28;20181;-63
2022/03/13 01:07:14;;;;;;;20.60;16.10;;;;;;;;;;5078465;28;20223;-63
2022/03/13 01:09:41;;;;;;;24.47;17.47;;;;;;;;;;5078449;28;20189;-64
2022/03/13 01:12:07;;;;;;;17.47;12.00;;;;;;;;;;5078256;28;20205;-63
2022/03/13 01:14:34;;;;;;;14.80;11.77;;;;;;;;;;5096795;28;20177;-62
2022/03/13 01:17:02;;;;;;;15.57;11.60;;;;;;;;;;5096429;28;20196;-63
2022/03/13 01:19:28;;;;;;;18.20;11.57;;;;;;;;;;5096429;28;20643;-64
2022/03/13 01:21:54;;;;;;;19.80;11.90;;;;;;;;;;5078176;28;20212;-63
2022/03/13 01:24:24;;;;;;;15.90;11.87;;;;;;;;;;5096829;28;20532;-63
2022/03/13 01:26:54;;;;;;;17.30;11.43;;;;;;;;;;5077940;28;20224;-63
2022/03/13 01:29:20;;;;;;;18.50;11.17;;;;;;;;;;5096303;28;20605;-63
2022/03/13 01:31:47;;;;;;;13.50;10.10;;;;;;;;;;5096225;28;20236;-63
2022/03/13 01:34:26;;;;;;;12.07;9.57;;;;;;;;;;5096192;28;20547;-63
2022/03/13 01:36:52;;;;;;;13.63;10.70;;;;;;;;;;5095097;28;20268;-63
2022/03/13 01:39:18;;;;;;;13.87;10.33;;;;;;;;;;5096116;28;20200;-63
2022/03/13 01:41:44;;;;;;;14.27;10.63;;;;;;;;;;5096221;28;20169;-63
2022/03/13 01:44:10;;;;;;;14.20;10.50;;;;;;;;;;5096021;28;20215;-63
2022/03/13 01:46:36;;;;;;;18.50;10.90;;;;;;;;;;5095830;28;20593;-63
2022/03/13 01:49:06;;;;;;;15.10;9.80;;;;;;;;;;5095927;28;20196;-63
2022/03/13 01:51:33;;;;;;;12.10;10.03;;;;;;;;;;5095950;28;20197;-63
2022/03/13 01:54:01;;;;;;;13.70;9.90;;;;;;;;;;5077615;28;20640;-63
2022/03/13 01:56:29;;;;;;;11.43;9.73;;;;;;;;;;5077495;28;20205;-63
2022/03/13 01:58:55;;;;;;;13.63;9.37;;;;;;;;;;5077525;28;20644;-63
2022/03/13 02:01:22;;;;;;;15.67;10.47;;;;;;;;;;5095871;28;20201;-63
2022/03/13 02:03:49;;;;;;;13.07;9.43;;;;;;;;;;5095723;28;20180;-63
2022/03/13 02:06:16;;;;;;;13.00;9.70;;;;;;;;;;5096063;28;20223;-63
2022/03/13 02:08:44;;;;;;;13.83;9.20;;;;;;;;;;5095613;28;20211;-63
2022/03/13 02:11:09;;;;;;;12.73;9.83;;;;;;;;;;5095413;28;20240;-63
2022/03/13 02:13:36;;;;;;;14.03;9.40;;;;;;;;;;5095478;28;20219;-62
2022/03/13 02:16:02;;;;;;;14.77;9.57;;;;;;;;;;5095583;28;20169;-63
2022/03/13 02:18:28;;;;;;;13.53;9.73;;;;;;;;;;5095478;28;20179;-63
2022/03/13 02:20:54;;;;;;;12.70;9.60;;;;;;;;;;5095936;28;20258;-62
2022/03/13 02:23:28;;;;;;;11.97;9.93;;;;;;;;;;5095542;28;20252;-62
2022/03/13 02:25:58;;;;;;;14.90;10.77;;;;;;;;;;5077018;28;20202;-63
2022/03/13 02:28:26;;;;;;;11.97;9.30;;;;;;;;;;5095051;28;20231;-65
2022/03/13 02:30:54;;;;;;;10.40;9.13;;;;;;;;;;5095371;28;20181;-64
2022/03/13 02:33:21;;;;;;;13.23;9.13;;;;;;;;;;5094944;28;20257;-64
2022/03/13 02:35:57;;;;;;;13.00;9.50;;;;;;;;;;5076791;28;20173;-65
2022/03/13 02:38:24;;;;;;;13.10;9.53;;;;;;;;;;5095206;28;20173;-63
2022/03/13 02:40:50;;;;;;;13.23;10.53;;;;;;;;;;5094809;28;20222;-63
2022/03/13 02:43:16;;;;;;;15.10;9.60;;;;;;;;;;5094945;28;20641;-62
2022/03/13 02:45:42;;;;;;;14.33;10.07;;;;;;;;;;5076608;28;20173;-65
2022/03/13 02:48:09;;;;;;;14.03;10.13;;;;;;;;;;5094409;28;20570;-64
2022/03/13 02:50:35;;;;;;;14.03;9.67;;;;;;;;;;5094731;28;20178;-64
2022/03/13 02:53:01;;;;;;;15.10;10.07;;;;;;;;;;5095176;28;20584;-64
2022/03/13 02:55:28;;;;;;;12.97;9.57;;;;;;;;;;5094955;28;20174;-62
2022/03/13 02:57:54;;;;;;;13.83;9.70;;;;;;;;;;5094779;28;20204;-63
2022/03/13 03:00:21;;;;;;;14.07;9.40;;;;;;;;;;5094626;28;20650;-63
2022/03/13 03:02:48;;;;;;;14.90;10.00;;;;;;;;;;5094751;28;20181;-63
2022/03/13 03:05:15;;;;;;;14.60;9.13;;;;;;;;;;5076434;28;20655;-66
2022/03/13 03:07:41;;;;;;;12.40;9.57;;;;;;;;;;5094597;28;20676;-62
2022/03/13 03:10:11;;;;;;;12.77;10.10;;;;;;;;;;5096168;28;20177;-63
2022/03/13 03:12:37;;;;;;;12.90;9.40;;;;;;;;;;5078388;28;20660;-64
2022/03/13 03:15:03;;;;;;;14.37;9.23;;;;;;;;;;5095709;28;20702;-63
2022/03/13 03:17:29;;;;;;;12.27;9.60;;;;;;;;;;5094285;28;20200;-64
2022/03/13 03:19:55;;;;;;;13.17;9.93;;;;;;;;;;5094502;28;20173;-64
2022/03/13 03:22:21;;;;;;;13.50;9.17;;;;;;;;;;5094124;28;20259;-63
2022/03/13 03:24:48;;;;;;;11.63;8.63;;;;;;;;;;5094154;28;20185;-65
2022/03/13 03:27:16;;;;;;;12.33;8.97;;;;;;;;;;5093946;28;20235;-63
2022/03/13 03:29:42;;;;;;;11.53;9.07;;;;;;;;;;5075858;28;20609;-64
2022/03/13 03:32:08;;;;;;;13.57;9.63;;;;;;;;;;5075671;28;20201;-64
2022/03/13 03:34:34;;;;;;;13.17;9.10;;;;;;;;;;5094209;28;20178;-63
2022/03/13 03:37:01;;;;;;;12.87;9.53;;;;;;;;;;5093895;28;20683;-62
2022/03/13 03:39:28;;;;;;;11.93;9.20;;;;;;;;;;5093801;28;20176;-63
2022/03/13 03:41:55;;;;;;;18.07;9.80;;;;;;;;;;5094048;28;20177;-62
2022/03/13 03:44:21;;;;;;;12.97;8.47;;;;;;;;;;5093785;28;20177;-62
2022/03/13 03:46:48;;;;;;;11.57;8.30;;;;;;;;;;5075400;28;20207;-64
2022/03/13 03:49:14;;;;;;;11.93;9.00;;;;;;;;;;5093958;28;20173;-63
2022/03/13 03:51:40;;;;;;;12.03;8.43;;;;;;;;;;5093509;28;20276;-64
2022/03/13 03:54:07;;;;;;;12.40;8.83;;;;;;;;;;5075477;28;20255;-64
2022/03/13 03:56:33;;;;;;;12.33;9.07;;;;;;;;;;5093457;28;20197;-63
2022/03/13 03:58:59;;;;;;;12.87;9.27;;;;;;;;;;5093380;28;20177;-63
2022/03/13 04:01:25;;;;;;;15.90;9.90;;;;;;;;;;5074947;28;20185;-63
2022/03/13 04:03:51;;;;;;;12.53;9.03;;;;;;;;;;5093544;28;20177;-63
2022/03/13 04:06:19;;;;;;;15.40;9.57;;;;;;;;;;5093417;28;20567;-64
2022/03/13 04:08:45;;;;;;;12.07;9.63;;;;;;;;;;5075309;28;20181;-63
2022/03/13 04:11:12;;;;;;;11.33;9.03;;;;;;;;;;5075259;28;20181;-63
2022/03/13 04:13:38;;;;;;;11.53;9.23;;;;;;;;;;5075417;28;20183;-63
2022/03/13 04:16:05;;;;;;;11.83;8.77;;;;;;;;;;5076390;28;20173;-63
2022/03/13 04:18:31;;;;;;;12.90;9.07;;;;;;;;;;5075261;28;20200;-63
2022/03/13 04:20:58;;;;;;;13.73;9.97;;;;;;;;;;5093197;28;20169;-63
2022/03/13 04:23:25;;;;;;;12.23;9.00;;;;;;;;;;5093270;28;20206;-63
2022/03/13 04:25:51;;;;;;;17.43;9.80;;;;;;;;;;5093220;28;20173;-63
2022/03/13 04:28:17;;;;;;;15.13;9.53;;;;;;;;;;5074858;28;20212;-64
2022/03/13 04:30:44;;;;;;;12.40;8.73;;;;;;;;;;5075112;28;20181;-63
2022/03/13 04:33:10;;;;;;;13.67;9.23;;;;;;;;;;5093121;28;20197;-63
2022/03/13 04:35:36;;;;;;;12.60;9.23;;;;;;;;;;5075034;28;20177;-63
2022/03/13 04:38:02;;;;;;;12.87;8.83;;;;;;;;;;5092957;28;20204;-63
2022/03/13 04:40:28;;;;;;;14.57;9.23;;;;;;;;;;5074906;28;20205;-64
2022/03/13 04:42:54;;;;;;;11.10;8.67;;;;;;;;;;5093099;28;20222;-64
2022/03/13 04:45:20;;;;;;;15.73;9.07;;;;;;;;;;5093590;28;20177;-62
2022/03/13 04:47:46;;;;;;;12.60;9.03;;;;;;;;;;5092985;28;20755;-63
2022/03/13 04:50:11;;;;;;;12.13;9.70;;;;;;;;;;5074848;28;20220;-63
2022/03/13 04:52:37;;;;;;;12.90;9.87;;;;;;;;;;5093029;28;20227;-62
2022/03/13 04:55:05;;;;;;;13.30;9.23;;;;;;;;;;5092991;28;20298;-62
2022/03/13 04:57:31;;;;;;;13.77;9.67;;;;;;;;;;5074803;28;20220;-64
2022/03/13 04:59:57;;;;;;;12.40;8.73;;;;;;;;;;5074893;28;20182;-63
2022/03/13 05:02:23;;;;;;;12.37;8.87;;;;;;;;;;5074907;28;20185;-64
2022/03/13 05:04:49;;;;;;;13.10;9.63;;;;;;;;;;5074903;28;20208;-64
2022/03/13 05:07:17;;;;;;;12.47;8.87;;;;;;;;;;5074794;28;20193;-62
2022/03/13 05:09:43;;;;;;;14.03;9.00;;;;;;;;;;5092937;28;20655;-63
2022/03/13 05:12:10;;;;;;;15.33;9.37;;;;;;;;;;5095472;28;20193;-64
2022/03/13 05:14:37;;;;;;;12.47;9.13;;;;;;;;;;5078377;28;20188;-64
2022/03/13 05:17:03;;;;;;;13.47;9.73;;;;;;;;;;5078204;28;20602;-62
2022/03/13 05:19:29;;;;;;;12.43;8.67;;;;;;;;;;5096452;28;20227;-64
2022/03/13 05:21:55;;;;;;;14.80;9.20;;;;;;;;;;5078201;28;20185;-62
2022/03/13 05:24:21;;;;;;;14.37;9.10;;;;;;;;;;5096308;28;20260;-62
2022/03/13 05:26:47;;;;;;;12.33;8.87;;;;;;;;;;5096082;28;20331;-61
2022/03/13 05:29:13;;;;;;;12.30;8.63;;;;;;;;;;5078066;28;20230;-64
2022/03/13 05:31:43;;;;;;;12.83;9.97;;;;;;;;;;5096208;28;20626;-64
2022/03/13 05:34:09;;;;;;;13.27;9.20;;;;;;;;;;5077993;28;20173;-63
2022/03/13 05:36:35;;;;;;;11.33;8.90;;;;;;;;;;5077921;28;20197;-64
2022/03/13 05:39:01;;;;;;;12.40;8.63;;;;;;;;;;5078001;28;20640;-62
2022/03/13 05:41:28;;;;;;;11.73;8.20;;;;;;;;;;5096226;28;20256;-63
2022/03/13 05:43:54;;;;;;;11.90;9.07;;;;;;;;;;5077817;28;20276;-62
2022/03/13 05:46:20;;;;;;;14.23;8.53;;;;;;;;;;5095850;28;20682;-62
2022/03/13 05:48:46;;;;;;;10.67;8.20;;;;;;;;;;5077666;28;20578;-64
2022/03/13 05:51:12;;;;;;;11.77;8.67;;;;;;;;;;5077619;28;20188;-64
2022/03/13 05:53:38;;;;;;;12.73;8.17;;;;;;;;;;5095695;28;20256;-62
2022/03/13 05:56:04;;;;;;;14.97;9.33;;;;;;;;;;5095635;28;20173;-63
2022/03/13 05:58:30;;;;;;;13.27;9.43;;;;;;;;;;5095820;28;20543;-62
2022/03/13 06:01:08;;;;;;;11.83;8.03;;;;;;;;;;5095563;28;20636;-63
2022/03/13 06:03:34;;;;;;;11.63;8.87;;;;;;;;;;5095595;28;20206;-62
2022/03/13 06:06:03;;;;;;;14.73;8.63;;;;;;;;;;5095513;28;20174;-63
2022/03/13 06:08:29;;;;;;;10.60;8.23;;;;;;;;;;5095476;28;20173;-63
2022/03/13 06:10:55;;;;;;;13.80;9.03;;;;;;;;;;5095703;28;20203;-64
2022/03/13 06:13:22;;;;;;;12.80;8.47;;;;;;;;;;5077282;28;20295;-64
2022/03/13 06:15:49;;;;;;;12.50;8.93;;;;;;;;;;5077465;28;20528;-65
2022/03/13 06:18:15;;;;;;;11.83;8.80;;;;;;;;;;5077114;28;20625;-62
2022/03/13 06:20:41;;;;;;;10.17;8.30;;;;;;;;;;5077106;28;20205;-62
2022/03/13 06:23:09;;;;;;;11.87;8.73;;;;;;;;;;5094684;28;20177;-63
2022/03/13 06:25:35;;;;;;;11.40;8.97;;;;;;;;;;5095453;28;20204;-62
2022/03/13 06:28:01;;;;;;;12.70;8.33;;;;;;;;;;5076894;28;20266;-64
2022/03/13 06:30:29;;;;;;;13.13;8.40;;;;;;;;;;5095101;28;20563;-64
2022/03/13 06:32:56;;;;;;;11.03;8.53;;;;;;;;;;5076813;28;20204;-64
2022/03/13 06:35:23;;;;;;;11.30;8.90;;;;;;;;;;5094964;28;20204;-64
2022/03/13 06:37:49;;;;;;;11.93;8.87;;;;;;;;;;5094775;28;20193;-64
2022/03/13 06:40:19;;;;;;;10.70;8.80;;;;;;;;;;5095435;28;20655;-64
2022/03/13 06:42:45;;;;;;;28.93;19.47;;;;;;;;;;5095191;28;20184;-64
2022/03/13 06:45:12;;;;;;;27.90;20.17;;;;;;;;;;5095057;28;20188;-64
2022/03/13 06:47:38;;;;;;;10.57;8.70;;;;;;;;;;5095288;28;20802;-64
2022/03/13 06:50:05;;;;;;;13.80;10.03;;;;;;;;;;5094976;28;20185;-64
2022/03/13 06:52:31;;;;;;;10.23;8.03;;;;;;;;;;5094464;28;20199;-64
2022/03/13 06:54:57;;;;;;;12.37;8.60;;;;;;;;;;5094671;28;20177;-64
2022/03/13 06:57:23;;;;;;;11.83;8.30;;;;;;;;;;5076308;28;20197;-64
2022/03/13 06:59:49;;;;;;;11.23;8.33;;;;;;;;;;5076576;28;20212;-62
2022/03/13 07:02:15;;;;;;;11.87;8.80;;;;;;;;;;5077303;28;20181;-62
2022/03/13 07:04:41;;;;;;;11.00;8.33;;;;;;;;;;5076959;28;20250;-63
2022/03/13 07:07:07;;;;;;;11.77;8.77;;;;;;;;;;5076465;28;20675;-63
2022/03/13 07:09:33;;;;;;;14.23;9.70;;;;;;;;;;5095224;28;20238;-63
2022/03/13 07:11:59;;;;;;;11.97;8.73;;;;;;;;;;5076469;28;20201;-62
2022/03/13 07:14:25;;;;;;;12.30;8.70;;;;;;;;;;5076312;28;20551;-63
2022/03/13 07:16:52;;;;;;;12.30;8.57;;;;;;;;;;5076413;28;20226;-62
2022/03/13 07:19:18;;;;;;;11.80;8.57;;;;;;;;;;5094746;28;20177;-63
2022/03/13 07:21:44;;;;;;;11.43;8.00;;;;;;;;;;5094381;28;20251;-63
2022/03/13 07:24:10;;;;;;;12.83;8.23;;;;;;;;;;5074002;22;20253;-62
2022/03/13 07:26:36;;;;;;;10.87;7.93;;;;;;;;;;5056925;28;20183;-62
2022/03/13 07:29:02;;;;;;;13.23;8.27;;;;;;;;;;5056779;28;20177;-62
2022/03/13 07:31:31;;;;;;;15.20;7.97;;;;;;;;;;5056403;28;20268;-62
2022/03/13 07:33:58;;;;;;;11.57;7.87;;;;;;;;;;5056031;28;20338;-61
2022/03/13 07:36:24;;;;;;;12.30;8.70;;;;;;;;;;5075126;28;20698;-61
2022/03/13 07:38:51;;;;;;;12.17;8.47;;;;;;;;;;5075251;28;20641;-61
2022/03/13 07:41:17;;;;;;;13.40;8.67;;;;;;;;;;5056895;28;20177;-62
2022/03/13 07:43:43;;;;;;;17.20;8.90;;;;;;;;;;5080145;28;20194;-61
2022/03/13 07:46:09;;;;;;;10.47;8.30;;;;;;;;;;5057215;28;20186;-61
2022/03/13 07:48:35;;;;;;;10.60;8.43;;;;;;;;;;5074825;28;20174;-61
2022/03/13 07:51:05;;;;;;;12.60;8.37;;;;;;;;;;5056520;28;20264;-62
2022/03/13 07:53:31;;;;;;;11.53;8.60;;;;;;;;;;5074045;28;20289;-62
2022/03/13 07:55:57;;;;;;;10.63;8.50;;;;;;;;;;5056147;28;20268;-61
2022/03/13 07:58:23;;;;;;;16.70;8.77;;;;;;;;;;5074448;28;20181;-62
2022/03/13 08:00:50;;;;;;;14.10;9.40;;;;;;;;;;5056351;28;20633;-62
2022/03/13 08:03:18;;;;;;;14.13;9.33;;;;;;;;;;5073775;28;20262;-62
2022/03/13 08:05:44;;;;;;;12.80;9.33;;;;;;;;;;5075117;28;20181;-62
2022/03/13 08:08:10;;;;;;;10.30;8.50;;;;;;;;;;5074410;28;20567;-61
2022/03/13 08:10:36;;;;;;;13.03;9.30;;;;;;;;;;5055804;28;20181;-61
2022/03/13 08:13:01;;;;;;;11.40;8.07;;;;;;;;;;5073816;28;20246;-62
2022/03/13 08:15:27;;;;;;;11.50;8.47;;;;;;;;;;5073900;28;20186;-62
2022/03/13 08:17:53;;;;;;;13.73;8.80;;;;;;;;;;5073579;28;20206;-62
2022/03/13 08:20:19;;;;;;;11.03;8.70;;;;;;;;;;5056128;28;20178;-62
2022/03/13 08:22:45;;;;;;;12.87;8.50;;;;;;;;;;5074149;28;20304;-63
2022/03/13 08:25:16;;;;;;;13.57;9.60;;;;;;;;;;5056809;28;20246;-62
2022/03/13 08:27:42;;;;;;;12.03;8.97;;;;;;;;;;5074261;28;20169;-61
2022/03/13 08:30:10;;;;;;;13.27;8.83;;;;;;;;;;5074213;28;20192;-60
2022/03/13 08:32:36;;;;;;;10.17;8.60;;;;;;;;;;5074009;28;20206;-61
2022/03/13 08:35:03;;;;;;;11.23;9.27;;;;;;;;;;5074138;28;20668;-62
2022/03/13 08:37:28;;;;;;;11.43;8.80;;;;;;;;;;5056239;28;20173;-62
2022/03/13 08:39:54;;;;;;;15.10;9.40;;;;;;;;;;5073756;28;20181;-62
2022/03/13 08:42:20;;;;;;;12.83;8.70;;;;;;;;;;5073811;28;20288;-63
2022/03/13 08:44:46;;;;;;;12.03;9.30;;;;;;;;;;5073600;28;20231;-62
2022/03/13 08:47:12;;;;;;;14.33;9.57;;;;;;;;;;5058285;28;20182;-62
2022/03/13 08:49:38;;;;;;;12.60;8.83;;;;;;;;;;5077645;28;20185;-62
2022/03/13 08:52:04;;;;;;;13.50;9.50;;;;;;;;;;5059261;28;20212;-62
2022/03/13 08:54:30;;;;;;;12.00;9.63;;;;;;;;;;5077639;28;20514;-63
2022/03/13 08:56:56;;;;;;;15.50;10.20;;;;;;;;;;5077629;28;20268;-62
2022/03/13 08:59:23;;;;;;;15.33;9.43;;;;;;;;;;5060145;28;20185;-62
2022/03/13 09:01:49;;;;;;;11.50;8.60;;;;;;;;;;5077725;28;20186;-63
2022/03/13 09:04:15;;;;;;;15.63;9.23;;;;;;;;;;5078046;28;20205;-63
2022/03/13 09:06:43;;;;;;;15.73;9.43;;;;;;;;;;5060083;28;20668;-62
2022/03/13 09:09:09;;;;;;;29.57;16.00;;;;;;;;;;5078250;28;20182;-62
2022/03/13 09:11:35;;;;;;;25.97;14.63;;;;;;;;;;5078589;28;20289;-61
2022/03/13 09:14:01;;;;;;;13.97;9.53;;;;;;;;;;5077991;28;20282;-61
2022/03/13 09:16:27;;;;;;;12.50;9.33;;;;;;;;;;5078121;28;20174;-62
2022/03/13 09:18:53;;;;;;;9.60;8.50;;;;;;;;;;5078017;28;20178;-61
2022/03/13 09:21:19;;;;;;;13.97;10.23;;;;;;;;;;5059648;28;20637;-62
2022/03/13 09:23:46;;;;;;;11.63;9.67;;;;;;;;;;5077431;28;20638;-62
2022/03/13 09:26:12;;;;;;;13.73;9.70;;;;;;;;;;5077856;28;20256;-62
2022/03/13 09:28:38;;;;;;;12.70;9.30;;;;;;;;;;5058975;28;20220;-62
2022/03/13 09:31:05;;;;;;;11.53;9.63;;;;;;;;;;5077135;28;20174;-62
2022/03/13 09:33:31;;;;;;;12.53;10.03;;;;;;;;;;5077321;28;20206;-61
2022/03/13 09:35:57;;;;;;;15.30;9.70;;;;;;;;;;5076996;28;20177;-61
2022/03/13 09:38:23;;;;;;;13.90;9.60;;;;;;;;;;5077619;28;20188;-62
2022/03/13 09:40:49;;;;;;;12.97;10.93;;;;;;;;;;5077553;28;20177;-62
2022/03/13 09:43:15;;;;;;;17.03;11.00;;;;;;;;;;5076936;28;20198;-62
2022/03/13 09:45:42;;;;;;;17.70;12.07;;;;;;;;;;5077515;28;20178;-62
2022/03/13 09:48:15;;;;;;;27.20;15.63;;;;;;;;;;5076976;28;20205;-62
2022/03/13 09:50:41;;;;;;;22.80;13.70;;;;;;;;;;5077546;28;20158;-62
2022/03/13 09:53:08;;;;;;;20.67;13.23;;;;;;;;;;5076817;28;20262;-61
2022/03/13 09:55:34;;;;;;;17.20;11.93;;;;;;;;;;5077480;28;20224;-62
2022/03/13 09:58:00;;;;;;;17.17;11.23;;;;;;;;;;5078382;28;20182;-64
2022/03/13 10:00:26;;;;;;;15.17;11.40;;;;;;;;;;5090307;28;20170;-61
2022/03/13 10:02:53;;;;;;;18.47;11.77;;;;;;;;;;5076772;28;20202;-63
2022/03/13 10:05:20;;;;;;;14.40;11.97;;;;;;;;;;5092647;28;20254;-62
2022/03/13 10:07:59;;;;;;;18.77;11.87;;;;;;;;;;5091462;28;20174;-64
2022/03/13 10:10:29;;;;;;;15.20;10.90;;;;;;;;;;5086439;28;20173;-62
2022/03/13 10:12:55;;;;;;;17.77;11.47;;;;;;;;;;5058500;28;20209;-62
2022/03/13 10:15:21;;;;;;;15.27;10.90;;;;;;;;;;5076717;28;20170;-62
2022/03/13 10:17:50;;;;;;;12.70;10.20;;;;;;;;;;5076895;28;20267;-61
2022/03/13 10:20:24;;;;;;;14.83;11.30;;;;;;;;;;5058861;28;20265;-62
2022/03/13 10:22:54;;;;;;;14.50;10.90;;;;;;;;;;5076750;28;20221;-62
2022/03/13 10:25:30;;;;;;;13.77;11.03;;;;;;;;;;5076381;28;20216;-62
2022/03/13 10:28:14;;;;;;;20.80;12.93;;;;;;;;;;5075994;28;20181;-62
2022/03/13 10:30:41;;;;;;;18.47;12.40;;;;;;;;;;5057992;28;20204;-62
2022/03/13 10:33:08;;;;;;;16.97;12.30;;;;;;;;;;5075813;28;20210;-62
2022/03/13 10:35:34;;;;;;;15.23;11.70;;;;;;;;;;5075778;28;20196;-62
2022/03/13 10:38:00;;;;;;;16.10;11.07;;;;;;;;;;5075539;28;20182;-62
2022/03/13 10:40:32;;;;;;;16.17;11.60;;;;;;;;;;5076203;28;20174;-62
2022/03/13 10:43:07;;;;;;;12.33;10.50;;;;;;;;;;5075919;28;20606;-62
2022/03/13 10:45:49;;;;;;;13.50;10.77;;;;;;;;;;5057794;28;20188;-62
2022/03/13 10:48:16;;;;;;;16.13;10.83;;;;;;;;;;5077746;28;20606;-62
2022/03/13 10:50:45;;;;;;;17.00;12.27;;;;;;;;;;5076223;28;20181;-62
2022/03/13 10:53:12;;;;;;;15.33;12.03;;;;;;;;;;5075617;28;20730;-62
2022/03/13 10:55:38;;;;;;;15.60;12.00;;;;;;;;;;5075627;28;20185;-62
2022/03/13 10:58:05;;;;;;;15.50;11.70;;;;;;;;;;5075418;28;20546;-62
2022/03/13 11:00:31;;;;;;;16.47;11.23;;;;;;;;;;5076022;28;20173;-62
2022/03/13 11:03:14;;;;;;;15.67;11.80;;;;;;;;;;5075613;28;20194;-62
2022/03/13 11:05:40;;;;;;;17.13;12.03;;;;;;;;;;5075282;28;20170;-62
2022/03/13 11:08:07;;;;;;;13.73;11.27;;;;;;;;;;5077807;28;20242;-62
2022/03/13 11:10:33;;;;;;;17.17;11.60;;;;;;;;;;5077989;28;20181;-62
2022/03/13 11:13:01;;;;;;;13.70;12.13;;;;;;;;;;5076122;28;20209;-61
2022/03/13 11:15:31;;;;;;;18.90;14.03;;;;;;;;;;5078398;28;20166;-63
2022/03/13 11:17:58;;;;;;;16.03;12.77;;;;;;;;;;5078738;28;20189;-62
2022/03/13 11:20:25;;;;;;;15.10;10.80;;;;;;;;;;5075573;28;20178;-62
2022/03/13 11:22:51;;;;;;;19.73;12.37;;;;;;;;;;5074809;28;20239;-61
2022/03/13 11:25:17;;;;;;;16.83;12.27;;;;;;;;;;5074935;28;20174;-62
2022/03/13 11:27:43;;;;;;;16.03;11.80;;;;;;;;;;5074475;28;20224;-60
2022/03/13 11:30:13;;;;;;;15.03;11.77;;;;;;;;;;5056443;28;20235;-62
2022/03/13 11:32:40;;;;;;;15.43;11.70;;;;;;;;;;5074815;28;20723;-62
2022/03/13 11:35:19;;;;;;;15.00;11.57;;;;;;;;;;5074326;28;20181;-62
2022/03/13 11:37:45;;;;;;;15.00;11.20;;;;;;;;;;5074348;28;20158;-62
2022/03/13 11:40:12;;;;;;;14.57;11.10;;;;;;;;;;5074055;28;20189;-62
2022/03/13 11:42:50;;;;;;;13.53;11.43;;;;;;;;;;5074270;28;20798;-62
2022/03/13 11:45:29;;;;;;;15.33;11.97;;;;;;;;;;5056156;28;20182;-62
2022/03/13 11:47:56;;;;;;;12.87;11.07;;;;;;;;;;5056350;28;20177;-62
2022/03/13 11:50:42;;;;;;;17.20;11.83;;;;;;;;;;5074202;28;20657;-62
2022/03/13 11:53:28;;;;;;;13.80;11.47;;;;;;;;;;5055897;28;20684;-62
2022/03/13 11:56:04;;;;;;;14.93;12.07;;;;;;;;;;5074439;28;20185;-62
2022/03/13 11:58:42;;;;;;;15.10;11.93;;;;;;;;;;5074334;28;20162;-62
2022/03/13 12:01:12;;;;;;;17.37;11.93;;;;;;;;;;5075128;28;20177;-62
2022/03/13 12:03:38;;;;;;;14.17;11.33;;;;;;;;;;5075746;28;20290;-62
2022/03/13 12:06:05;;;;;;;16.23;11.70;;;;;;;;;;5075787;28;20242;-61
2022/03/13 12:08:50;;;;;;;14.00;11.13;;;;;;;;;;5057322;28;20209;-61
2022/03/13 12:11:34;;;;;;;15.00;12.10;;;;;;;;;;5074926;28;20182;-62
2022/03/13 12:14:00;;;;;;;13.97;10.33;;;;;;;;;;5075560;28;20243;-61
2022/03/13 12:16:26;;;;;;;18.97;11.50;;;;;;;;;;5057793;28;20182;-62
2022/03/13 12:18:59;;;;;;;16.67;11.80;;;;;;;;;;5075720;28;20174;-62
2022/03/13 12:21:25;;;;;;;13.53;10.70;;;;;;;;;;5079595;28;20181;-62
2022/03/13 12:23:52;;;;;;;13.23;10.93;;;;;;;;;;5082167;28;20592;-62
2022/03/13 12:26:22;;;;;;;13.37;10.43;;;;;;;;;;5081773;28;20258;-62
2022/03/13 12:28:48;;;;;;;12.83;10.03;;;;;;;;;;5081984;28;20186;-62
2022/03/13 12:31:14;;;;;;;12.80;10.87;;;;;;;;;;5083139;28;20177;-62
2022/03/13 12:33:45;;;;;;;11.43;9.30;;;;;;;;;;5096336;28;20209;-62
2022/03/13 12:36:11;;;;;;;15.27;10.17;;;;;;;;;;5093110;28;20184;-63
2022/03/13 12:38:42;;;;;;;10.87;9.53;;;;;;;;;;5089632;28;20184;-62
2022/03/13 12:41:09;;;;;;;13.63;9.87;;;;;;;;;;5064650;28;20177;-62
2022/03/13 12:43:50;;;;;;;10.20;8.50;;;;;;;;;;5082054;28;20208;-65
2022/03/13 12:46:17;;;;;;;11.97;9.57;;;;;;;;;;5082437;28;20185;-61
2022/03/13 12:48:56;;;;;;;12.40;9.70;;;;;;;;;;5081662;28;20713;-63
2022/03/13 12:51:42;;;;;;;11.57;9.50;;;;;;;;;;5063304;28;20181;-62
2022/03/13 12:54:10;;;;;;;15.27;10.90;;;;;;;;;;5081220;28;20189;-62
2022/03/13 12:56:47;;;;;;;12.27;10.03;;;;;;;;;;5081344;28;20654;-62
2022/03/13 12:59:23;;;;;;;10.40;7.50;;;;;;;;;;5081590;28;20276;-62
2022/03/13 13:02:05;;;;;;;13.20;9.23;;;;;;;;;;5081109;28;20178;-62
2022/03/13 13:04:31;;;;;;;13.00;9.77;;;;;;;;;;5081083;28;20174;-63
2022/03/13 13:06:57;;;;;;;11.10;9.00;;;;;;;;;;5080899;28;20185;-62
2022/03/13 13:09:30;;;;;;;12.77;9.90;;;;;;;;;;5063507;28;20173;-62
2022/03/13 13:11:56;;;;;;;12.70;10.23;;;;;;;;;;5081813;28;20251;-62
2022/03/13 13:14:26;;;;;;;12.93;9.23;;;;;;;;;;5081565;28;20205;-62
2022/03/13 13:16:52;;;;;;;13.90;8.63;;;;;;;;;;5081466;28;20676;-62
2022/03/13 13:19:19;;;;;;;12.73;8.23;;;;;;;;;;5081330;28;20215;-62
2022/03/13 13:21:55;;;;;;;11.97;9.33;;;;;;;;;;5081749;28;20231;-62
2022/03/13 13:24:34;;;;;;;12.83;9.93;;;;;;;;;;5080504;28;20209;-61
2022/03/13 13:27:00;;;;;;;12.83;9.17;;;;;;;;;;5080372;28;20668;-62
2022/03/13 13:29:30;;;;;;;11.90;9.70;;;;;;;;;;5080584;28;20178;-62
2022/03/13 13:32:16;;;;;;;10.93;8.43;;;;;;;;;;5079666;28;20202;-62
2022/03/13 13:34:44;;;;;;;8.77;7.20;;;;;;;;;;5077784;28;20170;-62
2022/03/13 13:37:12;;;;;;;11.33;7.67;;;;;;;;;;5076834;28;20228;-63
2022/03/13 13:39:38;;;;;;;8.80;7.17;;;;;;;;;;5076688;28;20208;-62
2022/03/13 13:42:04;;;;;;;10.63;8.27;;;;;;;;;;5058652;28;20185;-63
2022/03/13 13:44:30;;;;;;;11.47;8.03;;;;;;;;;;5077027;28;20227;-62
2022/03/13 13:47:06;;;;;;;9.10;7.83;;;;;;;;;;5058689;28;20178;-62
2022/03/13 13:49:33;;;;;;;9.83;7.77;;;;;;;;;;5077121;28;20185;-62
2022/03/13 13:52:11;;;;;;;9.73;8.70;;;;;;;;;;5076473;28;20254;-62
2022/03/13 13:54:37;;;;;;;7.70;6.90;;;;;;;;;;5058770;28;20181;-62
2022/03/13 13:57:03;;;;;;;8.97;7.23;;;;;;;;;;5080858;28;20174;-63
2022/03/13 13:59:30;;;;;;;8.47;6.93;;;;;;;;;;5088737;28;20178;-62
2022/03/13 14:02:06;;;;;;;9.97;7.03;;;;;;;;;;5091513;28;20223;-63
2022/03/13 14:04:33;;;;;;;11.23;7.40;;;;;;;;;;5082628;28;20527;-63
2022/03/13 14:06:59;;;;;;;9.17;7.13;;;;;;;;;;5076704;28;20185;-63
2022/03/13 14:09:26;;;;;;;8.60;6.97;;;;;;;;;;5076355;28;20235;-63
2022/03/13 14:11:52;;;;;;;8.07;7.23;;;;;;;;;;5075760;28;20241;-63
2022/03/13 14:14:18;;;;;;;9.17;7.30;;;;;;;;;;5057551;28;20221;-63
2022/03/13 14:16:44;;;;;;;11.93;7.23;;;;;;;;;;5076093;28;20181;-63
2022/03/13 14:19:11;;;;;;;9.50;6.90;;;;;;;;;;5075927;28;20203;-63
2022/03/13 14:21:37;;;;;;;10.03;7.13;;;;;;;;;;5075937;28;20174;-63
2022/03/13 14:24:06;;;;;;;7.83;6.87;;;;;;;;;;5075219;28;20331;-63
2022/03/13 14:26:33;;;;;;;6.57;5.53;;;;;;;;;;5057514;28;20676;-63
2022/03/13 14:28:59;;;;;;;9.50;7.10;;;;;;;;;;5075324;28;20592;-63